KTCM/TCM METAR and TAF weather

Enter ICAO airport designator
Station Type Date Time Source
KTCM METAR 2020/10/20 16:58 UTC NOAA

KTCM 201658Z AUTO 00000KT 10SM FEW033 12/07 A3022 RMK AO2 SLP238 T01170074 RVRNO VISNO RWY34 CHINO RWY34 $


Station Type Date Time Source
KTCM Decoded METAR 2020/10/20 16:58 UTC NOAA

Tacoma / McChord Air Force Base, WA, United States (KTCM) 47-09N 122-29W 87M
Oct 20, 2020 - 12:58 PM EDT / 2020.10.20 1658 UTC
Wind: Calm:0
Visibility: 10 mile(s):0
Sky conditions: mostly clear
Temperature: 53.1 F (11.7 C)
Dew Point: 45.3 F (7.4 C)
Relative Humidity: 74%
Pressure (altimeter): 30.22 in. Hg (1023 hPa)
ob: KTCM 201658Z AUTO 00000KT 10SM FEW033 12/07 A3022 RMK AO2 SLP238 T01170074 RVRNO VISNO RWY34 CHINO RWY34
cycle: 17

Station Type Date Time Source
KTCM TAF 2020/10/20 13:03 UTC NOAA

TAF KTCM 201300Z 2013/2119 22006KT 9999 BKN020 QNH3021INS
TEMPO 2014/2017 BKN015
BECMG 2020/2021 25012KT 9999 BKN040 OVC060 QNH3015INS
BECMG 2105/2106 VRB06KT 9999 BKN020 OVC040 QNH3020INS
BECMG 2109/2110 VRB06KT 9999 BKN010 OVC020 QNH3022INS TX15/2023Z TN08/2013Z

Example: see airport list